sensor_id;sensor_type;location;lat;lon;timestamp;P1;durP1;ratioP1;P2;durP2;ratioP2
77061;SDS011;65989;51.686;5.138;2022-12-18T00:01:21;68.93;;;22.47;;
77061;SDS011;65989;51.686;5.138;2022-12-18T00:03:48;55.53;;;20.33;;
77061;SDS011;65989;51.686;5.138;2022-12-18T00:06:15;60.22;;;22.20;;
77061;SDS011;65989;51.686;5.138;2022-12-18T00:08:41;61.97;;;20.42;;
77061;SDS011;65989;51.686;5.138;2022-12-18T00:11:08;65.70;;;22.65;;
77061;SDS011;65989;51.686;5.138;2022-12-18T00:13:36;53.00;;;20.47;;
77061;SDS011;65989;51.686;5.138;2022-12-18T00:16:06;58.17;;;20.92;;
77061;SDS011;65989;51.686;5.138;2022-12-18T00:18:36;64.53;;;21.77;;
77061;SDS011;65989;51.686;5.138;2022-12-18T00:21:03;61.55;;;22.17;;
77061;SDS011;65989;51.686;5.138;2022-12-18T00:23:31;59.22;;;23.10;;
77061;SDS011;65989;51.686;5.138;2022-12-18T00:26:01;63.33;;;21.77;;
77061;SDS011;65989;51.686;5.138;2022-12-18T00:28:29;59.60;;;22.23;;
77061;SDS011;65989;51.686;5.138;2022-12-18T00:31:05;62.57;;;22.67;;
77061;SDS011;65989;51.686;5.138;2022-12-18T00:33:32;67.55;;;21.05;;
77061;SDS011;65989;51.686;5.138;2022-12-18T00:36:02;63.20;;;21.90;;
77061;SDS011;65989;51.686;5.138;2022-12-18T00:38:28;56.53;;;21.33;;
77061;SDS011;65989;51.686;5.138;2022-12-18T00:40:53;56.90;;;22.07;;
77061;SDS011;65989;51.686;5.138;2022-12-18T00:43:19;60.23;;;22.60;;
77061;SDS011;65989;51.686;5.138;2022-12-18T00:45:44;52.45;;;20.50;;
77061;SDS011;65989;51.686;5.138;2022-12-18T00:48:10;63.23;;;23.20;;
77061;SDS011;65989;51.686;5.138;2022-12-18T00:50:35;55.67;;;21.07;;
77061;SDS011;65989;51.686;5.138;2022-12-18T00:53:01;52.45;;;20.05;;
77061;SDS011;65989;51.686;5.138;2022-12-18T00:55:26;56.80;;;21.23;;
77061;SDS011;65989;51.686;5.138;2022-12-18T00:57:51;58.57;;;21.10;;
77061;SDS011;65989;51.686;5.138;2022-12-18T01:00:17;64.70;;;22.17;;
77061;SDS011;65989;51.686;5.138;2022-12-18T01:02:43;55.47;;;20.95;;
77061;SDS011;65989;51.686;5.138;2022-12-18T01:05:10;61.77;;;22.23;;
77061;SDS011;65989;51.686;5.138;2022-12-18T01:07:39;61.42;;;22.88;;
77061;SDS011;65989;51.686;5.138;2022-12-18T01:10:06;51.65;;;21.15;;
77061;SDS011;65989;51.686;5.138;2022-12-18T01:12:32;53.77;;;20.97;;
77061;SDS011;65989;51.686;5.138;2022-12-18T01:14:58;57.33;;;21.05;;
77061;SDS011;65989;51.686;5.138;2022-12-18T01:17:24;56.10;;;23.07;;
77061;SDS011;65989;51.686;5.138;2022-12-18T01:19:49;63.07;;;22.77;;
77061;SDS011;65989;51.686;5.138;2022-12-18T01:22:15;57.70;;;23.40;;
77061;SDS011;65989;51.686;5.138;2022-12-18T01:24:40;58.77;;;22.00;;
77061;SDS011;65989;51.686;5.138;2022-12-18T01:27:05;59.43;;;21.63;;
77061;SDS011;65989;51.686;5.138;2022-12-18T01:29:31;54.42;;;21.15;;
77061;SDS011;65989;51.686;5.138;2022-12-18T01:31:56;58.70;;;21.67;;
77061;SDS011;65989;51.686;5.138;2022-12-18T01:34:22;54.70;;;21.27;;
77061;SDS011;65989;51.686;5.138;2022-12-18T01:36:48;53.90;;;21.65;;
77061;SDS011;65989;51.686;5.138;2022-12-18T01:39:14;54.60;;;21.30;;
77061;SDS011;65989;51.686;5.138;2022-12-18T01:41:40;58.42;;;22.52;;
77061;SDS011;65989;51.686;5.138;2022-12-18T01:47:13;55.85;;;21.10;;
77061;SDS011;65989;51.686;5.138;2022-12-18T01:49:46;56.63;;;22.93;;
77061;SDS011;65989;51.686;5.138;2022-12-18T01:52:12;52.00;;;20.52;;
77061;SDS011;65989;51.686;5.138;2022-12-18T01:54:38;50.25;;;21.15;;
77061;SDS011;65989;51.686;5.138;2022-12-18T01:57:04;58.63;;;22.10;;
77061;SDS011;65989;51.686;5.138;2022-12-18T01:59:29;57.07;;;22.23;;
77061;SDS011;65989;51.686;5.138;2022-12-18T02:01:57;51.22;;;21.20;;
77061;SDS011;65989;51.686;5.138;2022-12-18T02:04:25;52.80;;;20.10;;
77061;SDS011;65989;51.686;5.138;2022-12-18T02:06:58;57.22;;;21.40;;
77061;SDS011;65989;51.686;5.138;2022-12-18T02:09:41;59.47;;;22.23;;
77061;SDS011;65989;51.686;5.138;2022-12-18T02:14:53;51.80;;;20.73;;
77061;SDS011;65989;51.686;5.138;2022-12-18T02:17:25;55.90;;;21.92;;
77061;SDS011;65989;51.686;5.138;2022-12-18T02:22:58;55.37;;;21.10;;
77061;SDS011;65989;51.686;5.138;2022-12-18T02:28:25;52.60;;;21.05;;
77061;SDS011;65989;51.686;5.138;2022-12-18T02:30:54;46.15;;;18.48;;
77061;SDS011;65989;51.686;5.138;2022-12-18T02:33:23;50.95;;;20.05;;
77061;SDS011;65989;51.686;5.138;2022-12-18T02:35:51;47.87;;;19.63;;
77061;SDS011;65989;51.686;5.138;2022-12-18T02:38:20;51.15;;;19.60;;
77061;SDS011;65989;51.686;5.138;2022-12-18T02:40:46;56.45;;;22.35;;
77061;SDS011;65989;51.686;5.138;2022-12-18T02:43:14;49.93;;;18.60;;
77061;SDS011;65989;51.686;5.138;2022-12-18T02:45:47;52.50;;;20.30;;
77061;SDS011;65989;51.686;5.138;2022-12-18T02:48:15;59.15;;;22.23;;
77061;SDS011;65989;51.686;5.138;2022-12-18T02:50:45;54.75;;;20.50;;
77061;SDS011;65989;51.686;5.138;2022-12-18T02:53:27;48.55;;;20.17;;
77061;SDS011;65989;51.686;5.138;2022-12-18T03:04:02;47.78;;;19.08;;
77061;SDS011;65989;51.686;5.138;2022-12-18T03:06:34;42.95;;;18.42;;
77061;SDS011;65989;51.686;5.138;2022-12-18T03:09:04;48.50;;;19.30;;
77061;SDS011;65989;51.686;5.138;2022-12-18T03:11:34;43.47;;;18.40;;
77061;SDS011;65989;51.686;5.138;2022-12-18T03:14:22;51.03;;;20.13;;
77061;SDS011;65989;51.686;5.138;2022-12-18T03:16:50;50.38;;;18.80;;
77061;SDS011;65989;51.686;5.138;2022-12-18T03:19:21;43.38;;;18.65;;
77061;SDS011;65989;51.686;5.138;2022-12-18T03:21:50;47.93;;;19.57;;
77061;SDS011;65989;51.686;5.138;2022-12-18T03:24:18;51.05;;;19.33;;
77061;SDS011;65989;51.686;5.138;2022-12-18T03:26:47;50.78;;;18.45;;
77061;SDS011;65989;51.686;5.138;2022-12-18T03:29:26;51.33;;;19.73;;
77061;SDS011;65989;51.686;5.138;2022-12-18T03:32:01;49.95;;;19.50;;
77061;SDS011;65989;51.686;5.138;2022-12-18T03:34:33;48.63;;;18.77;;
77061;SDS011;65989;51.686;5.138;2022-12-18T03:37:00;41.58;;;17.40;;
77061;SDS011;65989;51.686;5.138;2022-12-18T03:39:28;47.33;;;19.33;;
77061;SDS011;65989;51.686;5.138;2022-12-18T03:42:01;38.87;;;17.23;;
77061;SDS011;65989;51.686;5.138;2022-12-18T03:44:43;43.85;;;18.77;;
77061;SDS011;65989;51.686;5.138;2022-12-18T03:50:16;42.55;;;18.58;;
77061;SDS011;65989;51.686;5.138;2022-12-18T03:55:15;44.50;;;16.85;;
77061;SDS011;65989;51.686;5.138;2022-12-18T03:57:42;35.85;;;15.40;;
77061;SDS011;65989;51.686;5.138;2022-12-18T04:00:11;42.72;;;17.17;;
77061;SDS011;65989;51.686;5.138;2022-12-18T04:02:40;39.40;;;17.25;;
77061;SDS011;65989;51.686;5.138;2022-12-18T04:05:10;41.07;;;17.13;;
77061;SDS011;65989;51.686;5.138;2022-12-18T04:07:37;37.15;;;15.73;;
77061;SDS011;65989;51.686;5.138;2022-12-18T04:10:05;41.90;;;16.55;;
77061;SDS011;65989;51.686;5.138;2022-12-18T04:12:32;38.55;;;15.75;;
77061;SDS011;65989;51.686;5.138;2022-12-18T04:14:58;39.10;;;16.83;;
77061;SDS011;65989;51.686;5.138;2022-12-18T04:17:23;37.97;;;16.40;;
77061;SDS011;65989;51.686;5.138;2022-12-18T04:19:48;37.83;;;16.30;;
77061;SDS011;65989;51.686;5.138;2022-12-18T04:22:14;36.27;;;15.50;;
77061;SDS011;65989;51.686;5.138;2022-12-18T04:24:40;39.53;;;16.10;;
77061;SDS011;65989;51.686;5.138;2022-12-18T04:27:06;37.27;;;17.03;;
77061;SDS011;65989;51.686;5.138;2022-12-18T04:29:32;36.80;;;17.00;;
77061;SDS011;65989;51.686;5.138;2022-12-18T04:31:57;37.37;;;16.37;;
77061;SDS011;65989;51.686;5.138;2022-12-18T04:34:23;34.03;;;15.00;;
77061;SDS011;65989;51.686;5.138;2022-12-18T04:36:48;36.03;;;16.47;;
77061;SDS011;65989;51.686;5.138;2022-12-18T04:39:14;37.43;;;15.73;;
77061;SDS011;65989;51.686;5.138;2022-12-18T04:41:39;35.27;;;16.53;;
77061;SDS011;65989;51.686;5.138;2022-12-18T04:44:06;39.38;;;16.70;;
77061;SDS011;65989;51.686;5.138;2022-12-18T04:46:31;37.80;;;17.60;;
77061;SDS011;65989;51.686;5.138;2022-12-18T04:48:57;32.42;;;14.95;;
77061;SDS011;65989;51.686;5.138;2022-12-18T04:51:22;36.87;;;15.53;;
77061;SDS011;65989;51.686;5.138;2022-12-18T04:53:47;32.10;;;14.10;;
77061;SDS011;65989;51.686;5.138;2022-12-18T04:56:14;32.90;;;15.37;;
77061;SDS011;65989;51.686;5.138;2022-12-18T04:58:40;39.63;;;16.17;;
77061;SDS011;65989;51.686;5.138;2022-12-18T05:01:07;35.57;;;15.20;;
77061;SDS011;65989;51.686;5.138;2022-12-18T05:03:33;35.50;;;14.75;;
77061;SDS011;65989;51.686;5.138;2022-12-18T05:05:59;35.00;;;14.23;;
77061;SDS011;65989;51.686;5.138;2022-12-18T05:08:25;34.17;;;16.07;;
77061;SDS011;65989;51.686;5.138;2022-12-18T05:11:01;40.80;;;15.55;;
77061;SDS011;65989;51.686;5.138;2022-12-18T05:13:29;32.58;;;14.32;;
77061;SDS011;65989;51.686;5.138;2022-12-18T05:15:55;33.33;;;14.87;;
77061;SDS011;65989;51.686;5.138;2022-12-18T05:18:21;33.30;;;15.27;;
77061;SDS011;65989;51.686;5.138;2022-12-18T05:20:47;38.27;;;16.20;;
77061;SDS011;65989;51.686;5.138;2022-12-18T05:23:12;32.20;;;13.13;;
77061;SDS011;65989;51.686;5.138;2022-12-18T05:25:37;35.03;;;14.93;;
77061;SDS011;65989;51.686;5.138;2022-12-18T05:28:03;34.10;;;15.33;;
77061;SDS011;65989;51.686;5.138;2022-12-18T05:30:28;33.70;;;15.43;;
77061;SDS011;65989;51.686;5.138;2022-12-18T05:32:54;33.83;;;14.77;;
77061;SDS011;65989;51.686;5.138;2022-12-18T05:35:19;31.57;;;14.60;;
77061;SDS011;65989;51.686;5.138;2022-12-18T05:37:45;31.57;;;14.10;;
77061;SDS011;65989;51.686;5.138;2022-12-18T05:40:10;33.37;;;14.27;;
77061;SDS011;65989;51.686;5.138;2022-12-18T05:42:36;30.13;;;13.80;;
77061;SDS011;65989;51.686;5.138;2022-12-18T05:45:02;34.97;;;14.30;;
77061;SDS011;65989;51.686;5.138;2022-12-18T05:47:28;28.52;;;13.52;;
77061;SDS011;65989;51.686;5.138;2022-12-18T05:49:54;30.67;;;15.13;;
77061;SDS011;65989;51.686;5.138;2022-12-18T05:52:20;35.05;;;14.48;;
77061;SDS011;65989;51.686;5.138;2022-12-18T05:54:45;32.22;;;13.27;;
77061;SDS011;65989;51.686;5.138;2022-12-18T05:57:11;28.00;;;13.23;;
77061;SDS011;65989;51.686;5.138;2022-12-18T05:59:36;29.83;;;13.83;;
77061;SDS011;65989;51.686;5.138;2022-12-18T06:02:02;30.50;;;13.47;;
77061;SDS011;65989;51.686;5.138;2022-12-18T06:04:30;35.83;;;14.77;;
77061;SDS011;65989;51.686;5.138;2022-12-18T06:06:56;29.20;;;13.15;;
77061;SDS011;65989;51.686;5.138;2022-12-18T06:09:21;27.83;;;13.17;;
77061;SDS011;65989;51.686;5.138;2022-12-18T06:11:47;27.77;;;12.93;;
77061;SDS011;65989;51.686;5.138;2022-12-18T06:14:13;27.35;;;13.57;;
77061;SDS011;65989;51.686;5.138;2022-12-18T06:16:38;31.15;;;13.55;;
77061;SDS011;65989;51.686;5.138;2022-12-18T06:19:04;31.90;;;13.70;;
77061;SDS011;65989;51.686;5.138;2022-12-18T06:21:30;37.65;;;12.20;;
77061;SDS011;65989;51.686;5.138;2022-12-18T06:23:56;27.73;;;12.77;;
77061;SDS011;65989;51.686;5.138;2022-12-18T06:26:22;32.93;;;12.70;;
77061;SDS011;65989;51.686;5.138;2022-12-18T06:28:48;28.63;;;12.23;;
77061;SDS011;65989;51.686;5.138;2022-12-18T06:31:14;27.53;;;12.57;;
77061;SDS011;65989;51.686;5.138;2022-12-18T06:33:39;27.83;;;12.38;;
77061;SDS011;65989;51.686;5.138;2022-12-18T06:36:05;25.63;;;12.67;;
77061;SDS011;65989;51.686;5.138;2022-12-18T06:38:37;32.65;;;13.02;;
77061;SDS011;65989;51.686;5.138;2022-12-18T06:41:07;26.80;;;12.40;;
77061;SDS011;65989;51.686;5.138;2022-12-18T06:43:34;29.88;;;12.90;;
77061;SDS011;65989;51.686;5.138;2022-12-18T06:46:03;26.10;;;12.18;;
77061;SDS011;65989;51.686;5.138;2022-12-18T06:48:29;27.73;;;12.93;;
77061;SDS011;65989;51.686;5.138;2022-12-18T06:50:55;29.07;;;13.07;;
77061;SDS011;65989;51.686;5.138;2022-12-18T06:53:20;28.80;;;12.27;;
77061;SDS011;65989;51.686;5.138;2022-12-18T06:55:46;32.03;;;12.67;;
77061;SDS011;65989;51.686;5.138;2022-12-18T06:58:12;28.30;;;12.90;;
77061;SDS011;65989;51.686;5.138;2022-12-18T07:00:38;27.63;;;12.13;;
77061;SDS011;65989;51.686;5.138;2022-12-18T07:03:03;22.20;;;9.57;;
77061;SDS011;65989;51.686;5.138;2022-12-18T07:05:28;30.33;;;12.97;;
77061;SDS011;65989;51.686;5.138;2022-12-18T07:07:54;25.70;;;12.70;;
77061;SDS011;65989;51.686;5.138;2022-12-18T07:10:19;24.50;;;12.40;;
77061;SDS011;65989;51.686;5.138;2022-12-18T07:12:45;27.75;;;13.32;;
77061;SDS011;65989;51.686;5.138;2022-12-18T07:15:10;26.20;;;12.97;;
77061;SDS011;65989;51.686;5.138;2022-12-18T07:17:36;30.17;;;13.17;;
77061;SDS011;65989;51.686;5.138;2022-12-18T07:20:01;23.30;;;11.57;;
77061;SDS011;65989;51.686;5.138;2022-12-18T07:22:27;26.70;;;12.73;;
77061;SDS011;65989;51.686;5.138;2022-12-18T07:24:52;27.13;;;13.73;;
77061;SDS011;65989;51.686;5.138;2022-12-18T07:27:17;35.13;;;12.67;;
77061;SDS011;65989;51.686;5.138;2022-12-18T07:29:43;29.67;;;13.87;;
77061;SDS011;65989;51.686;5.138;2022-12-18T07:32:08;27.48;;;12.85;;
77061;SDS011;65989;51.686;5.138;2022-12-18T07:34:37;26.37;;;11.33;;
77061;SDS011;65989;51.686;5.138;2022-12-18T07:37:02;26.92;;;12.43;;
77061;SDS011;65989;51.686;5.138;2022-12-18T07:39:28;27.67;;;12.25;;
77061;SDS011;65989;51.686;5.138;2022-12-18T07:41:53;25.33;;;13.23;;
77061;SDS011;65989;51.686;5.138;2022-12-18T07:44:37;26.38;;;12.85;;
77061;SDS011;65989;51.686;5.138;2022-12-18T07:47:03;30.77;;;13.48;;
77061;SDS011;65989;51.686;5.138;2022-12-18T07:49:29;30.40;;;12.17;;
77061;SDS011;65989;51.686;5.138;2022-12-18T07:51:55;27.33;;;12.03;;
77061;SDS011;65989;51.686;5.138;2022-12-18T07:54:21;30.02;;;13.95;;
77061;SDS011;65989;51.686;5.138;2022-12-18T07:56:47;27.10;;;13.27;;
77061;SDS011;65989;51.686;5.138;2022-12-18T07:59:13;26.30;;;12.40;;
77061;SDS011;65989;51.686;5.138;2022-12-18T08:01:38;31.20;;;13.93;;
77061;SDS011;65989;51.686;5.138;2022-12-18T08:04:04;27.60;;;12.10;;
77061;SDS011;65989;51.686;5.138;2022-12-18T08:06:29;27.85;;;12.98;;
77061;SDS011;65989;51.686;5.138;2022-12-18T08:08:55;29.23;;;13.53;;
77061;SDS011;65989;51.686;5.138;2022-12-18T08:11:21;29.13;;;13.57;;
77061;SDS011;65989;51.686;5.138;2022-12-18T08:13:48;28.95;;;13.27;;
77061;SDS011;65989;51.686;5.138;2022-12-18T08:16:14;27.13;;;12.53;;
77061;SDS011;65989;51.686;5.138;2022-12-18T08:18:39;28.77;;;12.30;;
77061;SDS011;65989;51.686;5.138;2022-12-18T08:21:11;30.67;;;13.03;;
77061;SDS011;65989;51.686;5.138;2022-12-18T08:23:39;30.08;;;13.07;;
77061;SDS011;65989;51.686;5.138;2022-12-18T08:26:05;26.40;;;12.52;;
77061;SDS011;65989;51.686;5.138;2022-12-18T08:28:31;29.40;;;14.03;;
77061;SDS011;65989;51.686;5.138;2022-12-18T08:30:56;26.37;;;12.60;;
77061;SDS011;65989;51.686;5.138;2022-12-18T08:33:22;29.17;;;14.90;;
77061;SDS011;65989;51.686;5.138;2022-12-18T08:35:47;30.20;;;13.80;;
77061;SDS011;65989;51.686;5.138;2022-12-18T08:38:13;28.07;;;12.50;;
77061;SDS011;65989;51.686;5.138;2022-12-18T08:40:38;28.73;;;11.73;;
77061;SDS011;65989;51.686;5.138;2022-12-18T08:43:03;25.00;;;13.53;;
77061;SDS011;65989;51.686;5.138;2022-12-18T08:45:56;28.48;;;12.43;;
77061;SDS011;65989;51.686;5.138;2022-12-18T08:48:21;28.75;;;12.77;;
77061;SDS011;65989;51.686;5.138;2022-12-18T08:50:53;31.07;;;13.57;;
77061;SDS011;65989;51.686;5.138;2022-12-18T08:53:20;27.73;;;13.07;;
77061;SDS011;65989;51.686;5.138;2022-12-18T08:55:45;24.63;;;12.27;;
77061;SDS011;65989;51.686;5.138;2022-12-18T08:58:10;29.90;;;12.97;;
77061;SDS011;65989;51.686;5.138;2022-12-18T09:00:36;27.37;;;13.40;;
77061;SDS011;65989;51.686;5.138;2022-12-18T09:03:01;27.20;;;14.27;;
77061;SDS011;65989;51.686;5.138;2022-12-18T09:05:27;31.30;;;14.83;;
77061;SDS011;65989;51.686;5.138;2022-12-18T09:07:52;32.00;;;14.77;;
77061;SDS011;65989;51.686;5.138;2022-12-18T09:10:17;26.70;;;13.80;;
77061;SDS011;65989;51.686;5.138;2022-12-18T09:12:43;31.67;;;13.80;;
77061;SDS011;65989;51.686;5.138;2022-12-18T09:15:08;32.67;;;14.37;;
77061;SDS011;65989;51.686;5.138;2022-12-18T09:17:34;24.70;;;12.53;;
77061;SDS011;65989;51.686;5.138;2022-12-18T09:19:59;29.40;;;13.83;;
77061;SDS011;65989;51.686;5.138;2022-12-18T09:22:25;34.53;;;15.03;;
77061;SDS011;65989;51.686;5.138;2022-12-18T09:24:50;34.37;;;16.13;;
77061;SDS011;65989;51.686;5.138;2022-12-18T09:27:15;38.70;;;17.20;;
77061;SDS011;65989;51.686;5.138;2022-12-18T09:29:41;37.97;;;18.47;;
77061;SDS011;65989;51.686;5.138;2022-12-18T09:32:06;40.93;;;16.50;;
77061;SDS011;65989;51.686;5.138;2022-12-18T09:34:31;31.23;;;14.13;;
77061;SDS011;65989;51.686;5.138;2022-12-18T09:36:57;29.85;;;14.48;;
77061;SDS011;65989;51.686;5.138;2022-12-18T09:39:23;27.40;;;14.23;;
77061;SDS011;65989;51.686;5.138;2022-12-18T09:41:55;32.20;;;15.63;;
77061;SDS011;65989;51.686;5.138;2022-12-18T09:49:22;28.48;;;13.75;;
77061;SDS011;65989;51.686;5.138;2022-12-18T09:55:03;33.40;;;14.88;;
77061;SDS011;65989;51.686;5.138;2022-12-18T09:57:37;30.60;;;14.97;;
77061;SDS011;65989;51.686;5.138;2022-12-18T10:00:17;32.70;;;15.60;;
77061;SDS011;65989;51.686;5.138;2022-12-18T10:02:45;29.00;;;14.98;;
77061;SDS011;65989;51.686;5.138;2022-12-18T10:05:12;32.45;;;15.43;;
77061;SDS011;65989;51.686;5.138;2022-12-18T10:07:47;27.88;;;13.85;;
77061;SDS011;65989;51.686;5.138;2022-12-18T10:13:15;26.88;;;13.57;;
77061;SDS011;65989;51.686;5.138;2022-12-18T10:15:49;29.75;;;15.40;;
77061;SDS011;65989;51.686;5.138;2022-12-18T10:21:58;30.20;;;14.57;;
77061;SDS011;65989;51.686;5.138;2022-12-18T10:27:43;32.45;;;14.85;;
77061;SDS011;65989;51.686;5.138;2022-12-18T10:30:13;28.70;;;15.27;;
77061;SDS011;65989;51.686;5.138;2022-12-18T10:32:41;27.73;;;13.30;;
77061;SDS011;65989;51.686;5.138;2022-12-18T10:35:40;26.40;;;15.10;;
77061;SDS011;65989;51.686;5.138;2022-12-18T10:38:04;27.35;;;13.50;;
77061;SDS011;65989;51.686;5.138;2022-12-18T10:40:57;28.38;;;13.50;;
77061;SDS011;65989;51.686;5.138;2022-12-18T10:43:38;27.40;;;14.50;;
77061;SDS011;65989;51.686;5.138;2022-12-18T10:48:33;26.27;;;14.45;;
77061;SDS011;65989;51.686;5.138;2022-12-18T10:50:59;25.42;;;13.23;;
77061;SDS011;65989;51.686;5.138;2022-12-18T10:53:26;29.35;;;15.30;;
77061;SDS011;65989;51.686;5.138;2022-12-18T10:55:54;29.43;;;14.20;;
77061;SDS011;65989;51.686;5.138;2022-12-18T11:03:29;25.65;;;13.93;;
77061;SDS011;65989;51.686;5.138;2022-12-18T11:06:01;23.98;;;11.65;;
77061;SDS011;65989;51.686;5.138;2022-12-18T11:08:29;28.73;;;14.53;;
77061;SDS011;65989;51.686;5.138;2022-12-18T11:10:54;27.33;;;14.45;;
77061;SDS011;65989;51.686;5.138;2022-12-18T11:13:23;24.03;;;11.83;;
77061;SDS011;65989;51.686;5.138;2022-12-18T11:15:51;28.23;;;13.43;;
77061;SDS011;65989;51.686;5.138;2022-12-18T11:18:28;26.65;;;13.95;;
77061;SDS011;65989;51.686;5.138;2022-12-18T11:20:56;27.97;;;14.70;;
77061;SDS011;65989;51.686;5.138;2022-12-18T11:23:24;28.80;;;14.80;;
77061;SDS011;65989;51.686;5.138;2022-12-18T11:25:51;25.77;;;13.68;;
77061;SDS011;65989;51.686;5.138;2022-12-18T11:28:27;27.40;;;14.05;;
77061;SDS011;65989;51.686;5.138;2022-12-18T11:31:19;25.98;;;13.75;;
77061;SDS011;65989;51.686;5.138;2022-12-18T11:33:49;24.87;;;11.97;;
77061;SDS011;65989;51.686;5.138;2022-12-18T11:36:19;20.65;;;11.48;;
77061;SDS011;65989;51.686;5.138;2022-12-18T11:38:46;24.02;;;13.00;;
77061;SDS011;65989;51.686;5.138;2022-12-18T11:41:48;25.77;;;13.23;;
77061;SDS011;65989;51.686;5.138;2022-12-18T11:50:16;28.60;;;14.25;;
77061;SDS011;65989;51.686;5.138;2022-12-18T11:52:44;28.48;;;13.70;;
77061;SDS011;65989;51.686;5.138;2022-12-18T11:57:52;27.37;;;13.03;;
77061;SDS011;65989;51.686;5.138;2022-12-18T12:00:28;26.67;;;13.60;;
77061;SDS011;65989;51.686;5.138;2022-12-18T12:03:19;27.80;;;13.93;;
77061;SDS011;65989;51.686;5.138;2022-12-18T12:08:34;28.20;;;14.00;;
77061;SDS011;65989;51.686;5.138;2022-12-18T12:14:09;23.58;;;13.15;;
77061;SDS011;65989;51.686;5.138;2022-12-18T12:19:15;27.38;;;14.05;;
77061;SDS011;65989;51.686;5.138;2022-12-18T12:22:18;28.73;;;14.07;;
77061;SDS011;65989;51.686;5.138;2022-12-18T12:38:19;30.30;;;14.55;;
77061;SDS011;65989;51.686;5.138;2022-12-18T12:41:01;26.83;;;13.80;;
77061;SDS011;65989;51.686;5.138;2022-12-18T12:48:40;26.73;;;13.55;;
77061;SDS011;65989;51.686;5.138;2022-12-18T12:51:20;25.95;;;12.82;;
77061;SDS011;65989;51.686;5.138;2022-12-18T12:53:48;26.63;;;13.45;;
77061;SDS011;65989;51.686;5.138;2022-12-18T12:56:15;25.27;;;12.70;;
77061;SDS011;65989;51.686;5.138;2022-12-18T12:58:49;29.25;;;13.43;;
77061;SDS011;65989;51.686;5.138;2022-12-18T13:06:36;28.10;;;14.17;;
77061;SDS011;65989;51.686;5.138;2022-12-18T13:09:07;27.27;;;13.75;;
77061;SDS011;65989;51.686;5.138;2022-12-18T13:14:21;26.08;;;13.38;;
77061;SDS011;65989;51.686;5.138;2022-12-18T13:17:13;28.63;;;13.63;;
77061;SDS011;65989;51.686;5.138;2022-12-18T13:19:47;28.17;;;13.17;;
77061;SDS011;65989;51.686;5.138;2022-12-18T13:22:34;26.85;;;12.85;;
77061;SDS011;65989;51.686;5.138;2022-12-18T13:25:02;27.17;;;13.95;;
77061;SDS011;65989;51.686;5.138;2022-12-18T13:38:55;26.42;;;14.27;;
77061;SDS011;65989;51.686;5.138;2022-12-18T13:41:01;28.80;;;14.27;;
77061;SDS011;65989;51.686;5.138;2022-12-18T13:44:12;25.15;;;14.57;;
77061;SDS011;65989;51.686;5.138;2022-12-18T13:46:23;28.60;;;13.73;;
77061;SDS011;65989;51.686;5.138;2022-12-18T13:51:59;29.88;;;14.25;;
77061;SDS011;65989;51.686;5.138;2022-12-18T13:57:05;26.02;;;14.45;;
77061;SDS011;65989;51.686;5.138;2022-12-18T13:59:49;26.77;;;13.27;;
77061;SDS011;65989;51.686;5.138;2022-12-18T14:02:16;26.93;;;13.13;;
77061;SDS011;65989;51.686;5.138;2022-12-18T14:04:45;30.63;;;15.35;;
77061;SDS011;65989;51.686;5.138;2022-12-18T14:07:12;29.10;;;14.77;;
77061;SDS011;65989;51.686;5.138;2022-12-18T14:09:44;28.42;;;13.60;;
77061;SDS011;65989;51.686;5.138;2022-12-18T14:12:18;28.08;;;13.60;;
77061;SDS011;65989;51.686;5.138;2022-12-18T14:15:06;28.37;;;14.93;;
77061;SDS011;65989;51.686;5.138;2022-12-18T14:17:46;31.08;;;14.77;;
77061;SDS011;65989;51.686;5.138;2022-12-18T14:20:14;27.85;;;14.93;;
77061;SDS011;65989;51.686;5.138;2022-12-18T14:22:42;26.80;;;14.05;;
77061;SDS011;65989;51.686;5.138;2022-12-18T14:25:14;27.50;;;14.60;;
77061;SDS011;65989;51.686;5.138;2022-12-18T14:27:47;32.83;;;14.37;;
77061;SDS011;65989;51.686;5.138;2022-12-18T14:35:42;29.15;;;14.25;;
77061;SDS011;65989;51.686;5.138;2022-12-18T14:38:28;30.65;;;15.65;;
77061;SDS011;65989;51.686;5.138;2022-12-18T14:43:25;30.52;;;15.68;;
77061;SDS011;65989;51.686;5.138;2022-12-18T14:45:56;29.45;;;14.23;;
77061;SDS011;65989;51.686;5.138;2022-12-18T14:48:33;31.42;;;16.02;;
77061;SDS011;65989;51.686;5.138;2022-12-18T14:53:33;21.00;;;11.77;;
77061;SDS011;65989;51.686;5.138;2022-12-18T14:56:02;30.23;;;15.10;;
77061;SDS011;65989;51.686;5.138;2022-12-18T14:58:37;28.60;;;14.48;;
77061;SDS011;65989;51.686;5.138;2022-12-18T15:01:02;26.60;;;14.30;;
77061;SDS011;65989;51.686;5.138;2022-12-18T15:03:28;27.02;;;12.82;;
77061;SDS011;65989;51.686;5.138;2022-12-18T15:05:53;27.43;;;14.93;;
77061;SDS011;65989;51.686;5.138;2022-12-18T15:08:29;28.90;;;14.67;;
77061;SDS011;65989;51.686;5.138;2022-12-18T15:10:59;28.55;;;15.20;;
77061;SDS011;65989;51.686;5.138;2022-12-18T15:13:24;28.17;;;15.33;;
77061;SDS011;65989;51.686;5.138;2022-12-18T15:15:51;30.13;;;14.70;;
77061;SDS011;65989;51.686;5.138;2022-12-18T15:18:18;24.95;;;14.05;;
77061;SDS011;65989;51.686;5.138;2022-12-18T15:20:53;26.50;;;14.35;;
77061;SDS011;65989;51.686;5.138;2022-12-18T15:23:24;30.38;;;14.77;;
77061;SDS011;65989;51.686;5.138;2022-12-18T15:36:19;25.15;;;13.00;;
77061;SDS011;65989;51.686;5.138;2022-12-18T15:38:46;28.67;;;14.45;;
77061;SDS011;65989;51.686;5.138;2022-12-18T15:41:13;28.63;;;13.33;;
77061;SDS011;65989;51.686;5.138;2022-12-18T15:43:40;24.45;;;12.10;;
77061;SDS011;65989;51.686;5.138;2022-12-18T15:46:06;27.17;;;14.30;;
77061;SDS011;65989;51.686;5.138;2022-12-18T15:48:40;27.77;;;14.47;;
77061;SDS011;65989;51.686;5.138;2022-12-18T15:51:16;30.83;;;15.73;;
77061;SDS011;65989;51.686;5.138;2022-12-18T15:53:45;28.33;;;13.68;;
77061;SDS011;65989;51.686;5.138;2022-12-18T15:56:12;29.33;;;15.07;;
77061;SDS011;65989;51.686;5.138;2022-12-18T15:58:56;31.40;;;14.32;;
77061;SDS011;65989;51.686;5.138;2022-12-18T16:01:23;29.20;;;15.07;;
77061;SDS011;65989;51.686;5.138;2022-12-18T16:03:50;33.22;;;17.35;;
77061;SDS011;65989;51.686;5.138;2022-12-18T16:06:16;29.60;;;15.80;;
77061;SDS011;65989;51.686;5.138;2022-12-18T16:08:41;29.05;;;15.48;;
77061;SDS011;65989;51.686;5.138;2022-12-18T16:11:10;32.83;;;17.17;;
77061;SDS011;65989;51.686;5.138;2022-12-18T16:14:02;29.95;;;15.68;;
77061;SDS011;65989;51.686;5.138;2022-12-18T16:16:31;32.17;;;16.33;;
77061;SDS011;65989;51.686;5.138;2022-12-18T16:18:56;29.40;;;16.23;;
77061;SDS011;65989;51.686;5.138;2022-12-18T16:21:22;30.70;;;15.40;;
77061;SDS011;65989;51.686;5.138;2022-12-18T16:23:47;31.20;;;16.43;;
77061;SDS011;65989;51.686;5.138;2022-12-18T16:26:13;34.60;;;18.93;;
77061;SDS011;65989;51.686;5.138;2022-12-18T16:28:38;31.77;;;16.87;;
77061;SDS011;65989;51.686;5.138;2022-12-18T16:31:04;29.30;;;14.45;;
77061;SDS011;65989;51.686;5.138;2022-12-18T16:33:29;33.80;;;14.53;;
77061;SDS011;65989;51.686;5.138;2022-12-18T16:35:55;25.30;;;14.17;;
77061;SDS011;65989;51.686;5.138;2022-12-18T16:38:20;29.35;;;15.10;;
77061;SDS011;65989;51.686;5.138;2022-12-18T16:40:46;27.23;;;13.80;;
77061;SDS011;65989;51.686;5.138;2022-12-18T16:43:30;29.60;;;15.25;;